createdAt,value
2023-01-29T00:02:22.797Z,97956.41
2023-01-29T00:04:49.352Z,97963.53
2023-01-29T00:07:15.854Z,97973.09
2023-01-29T00:09:42.448Z,97967.84
2023-01-29T00:12:09.012Z,97942.53
2023-01-29T00:14:35.538Z,97964.31
2023-01-29T00:17:02.244Z,97957.19
2023-01-29T00:19:28.918Z,97948.69
2023-01-29T00:21:55.479Z,97950.47
2023-01-29T00:24:22.069Z,97955.34
2023-01-29T00:26:48.634Z,97967.59
2023-01-29T00:29:15.222Z,97978.00
2023-01-29T00:31:44.917Z,97974.88
2023-01-29T00:34:11.521Z,97960.25
2023-01-29T00:36:37.977Z,97941.50
2023-01-29T00:39:04.495Z,97960.03
2023-01-29T00:41:32.472Z,97967.38
2023-01-29T00:43:59.304Z,97932.75
2023-01-29T00:46:25.969Z,97997.13
2023-01-29T00:48:52.491Z,97984.50
2023-01-29T00:51:19.240Z,97940.25
2023-01-29T00:53:45.764Z,97952.28
2023-01-29T00:56:12.297Z,97944.75
2023-01-29T00:58:38.804Z,97955.75
2023-01-29T01:01:05.743Z,97963.53
2023-01-29T01:03:32.351Z,97939.34
2023-01-29T01:06:06.216Z,97942.97
2023-01-29T01:08:32.780Z,97947.66
2023-01-29T01:11:00.804Z,97941.88
2023-01-29T01:13:27.289Z,97942.91
2023-01-29T01:15:53.884Z,97959.38
2023-01-29T01:18:20.462Z,97951.72
2023-01-29T01:20:46.989Z,97951.06
2023-01-29T01:23:13.550Z,97971.44
2023-01-29T01:25:40.147Z,97939.66
2023-01-29T01:28:06.664Z,97940.81
2023-01-29T01:30:33.303Z,97940.81
2023-01-29T01:32:59.844Z,97931.09
2023-01-29T01:35:26.361Z,97926.34
2023-01-29T01:37:53.000Z,97951.63
2023-01-29T01:40:20.945Z,97959.16
2023-01-29T01:42:52.021Z,97948.19
2023-01-29T01:45:25.446Z,97941.66
2023-01-29T01:47:58.522Z,97964.50
2023-01-29T01:50:35.353Z,97935.53
2023-01-29T01:53:08.354Z,97928.19
2023-01-29T01:55:35.432Z,97915.69
2023-01-29T01:58:09.095Z,97944.09
2023-01-29T02:00:35.829Z,97935.84
2023-01-29T02:03:02.495Z,97927.13
2023-01-29T02:05:30.371Z,97961.81
2023-01-29T02:07:57.305Z,97914.91
2023-01-29T02:10:23.910Z,97929.16
2023-01-29T02:12:50.451Z,97941.78
2023-01-29T02:15:17.014Z,97936.28
2023-01-29T02:17:43.607Z,97925.28
2023-01-29T02:20:23.512Z,97937.53
2023-01-29T02:22:58.995Z,97912.59
2023-01-29T02:26:01.075Z,97899.53
2023-01-29T02:28:31.047Z,97934.97
2023-01-29T02:31:09.738Z,97931.00
2023-01-29T02:33:42.068Z,97934.63
2023-01-29T02:36:18.099Z,97946.22
2023-01-29T02:39:03.735Z,97925.28
2023-01-29T02:41:35.069Z,97931.97
2023-01-29T02:44:20.282Z,97937.84
2023-01-29T02:46:49.763Z,97940.31
2023-01-29T02:49:38.093Z,97934.78
2023-01-29T02:52:18.073Z,97928.28
2023-01-29T02:54:45.414Z,97956.22
2023-01-29T02:57:20.779Z,97927.47
2023-01-29T02:59:52.733Z,97982.22
2023-01-29T03:02:22.078Z,97925.66
2023-01-29T03:04:51.431Z,97947.19
2023-01-29T03:07:20.720Z,97947.63
2023-01-29T03:09:48.955Z,97917.88
2023-01-29T03:12:26.516Z,97936.84
2023-01-29T03:14:53.106Z,97932.94
2023-01-29T03:17:21.292Z,97926.66
2023-01-29T03:19:47.851Z,97917.06
2023-01-29T03:22:15.561Z,97906.69
2023-01-29T03:24:46.824Z,97910.53
2023-01-29T03:27:13.607Z,97911.03
2023-01-29T03:29:40.213Z,97927.84
2023-01-29T03:32:06.940Z,97915.25
2023-01-29T03:34:38.452Z,97908.75
2023-01-29T03:37:18.238Z,97935.53
2023-01-29T03:39:44.802Z,97928.41
2023-01-29T03:42:19.121Z,97931.66
2023-01-29T03:45:24.499Z,97934.16
2023-01-29T03:48:00.163Z,97915.44
2023-01-29T03:51:00.994Z,97945.75
2023-01-29T03:53:38.565Z,97940.72
2023-01-29T03:56:21.168Z,97933.53
2023-01-29T03:59:14.054Z,97911.94
2023-01-29T04:01:44.720Z,97960.19
2023-01-29T04:04:27.009Z,97937.03
2023-01-29T04:06:55.147Z,97961.88
2023-01-29T04:09:33.194Z,97945.13
2023-01-29T04:12:05.828Z,97947.13
2023-01-29T04:14:32.429Z,97954.63
2023-01-29T04:17:00.899Z,97956.91
2023-01-29T04:19:27.557Z,97918.72
2023-01-29T04:22:02.295Z,97945.50
2023-01-29T04:24:28.955Z,97964.19
2023-01-29T04:27:27.390Z,97923.66
2023-01-29T04:30:02.889Z,97943.69
2023-01-29T04:32:33.672Z,97925.94
2023-01-29T04:35:16.822Z,97940.59
2023-01-29T04:38:08.611Z,97937.56
2023-01-29T04:40:43.562Z,97956.09
2023-01-29T04:43:43.319Z,97937.31
2023-01-29T04:46:18.186Z,97932.03
2023-01-29T04:49:00.713Z,97961.56
2023-01-29T04:52:05.039Z,97943.38
2023-01-29T04:54:36.548Z,97964.72
2023-01-29T04:57:12.166Z,97941.19
2023-01-29T04:59:51.080Z,97932.59
2023-01-29T05:02:17.657Z,97936.06
2023-01-29T05:04:44.450Z,97945.00
2023-01-29T05:07:12.470Z,97943.00
2023-01-29T05:09:39.199Z,97937.75
2023-01-29T05:12:07.263Z,97934.66
2023-01-29T05:14:34.363Z,97964.16
2023-01-29T05:17:05.492Z,97946.22
2023-01-29T05:19:32.042Z,97956.78
2023-01-29T05:21:58.558Z,97944.00
2023-01-29T05:24:26.118Z,97923.88
2023-01-29T05:26:53.565Z,97955.66
2023-01-29T05:29:21.012Z,97961.56
2023-01-29T05:31:47.624Z,97955.81
2023-01-29T05:34:14.264Z,97940.53
2023-01-29T05:36:40.855Z,97919.34
2023-01-29T05:39:07.336Z,97948.03
2023-01-29T05:41:33.860Z,97916.75
2023-01-29T05:44:00.428Z,97922.03
2023-01-29T05:46:26.955Z,97914.75
2023-01-29T05:48:53.521Z,97940.09
2023-01-29T05:51:20.074Z,97966.81
2023-01-29T05:53:46.571Z,97915.28
2023-01-29T05:56:13.191Z,97943.28
2023-01-29T05:58:39.691Z,97929.91
2023-01-29T06:01:18.096Z,97915.06
2023-01-29T06:03:46.978Z,97921.75
2023-01-29T06:06:13.562Z,97902.81
2023-01-29T06:08:40.459Z,97920.50
2023-01-29T06:11:11.332Z,97944.53
2023-01-29T06:13:38.028Z,97964.84
2023-01-29T06:16:08.125Z,97943.06
2023-01-29T06:18:35.809Z,97933.34
2023-01-29T06:21:02.989Z,97939.16
2023-01-29T06:23:29.780Z,97934.75
2023-01-29T06:26:25.690Z,97921.16
2023-01-29T06:28:52.215Z,97936.59
2023-01-29T06:31:37.762Z,97926.81
2023-01-29T06:34:05.346Z,97906.03
2023-01-29T06:36:31.902Z,97926.78
2023-01-29T06:38:58.549Z,97933.72
2023-01-29T06:41:25.096Z,97926.22
2023-01-29T06:43:51.680Z,97939.16
2023-01-29T06:46:18.168Z,97890.63
2023-01-29T06:48:44.685Z,97897.75
2023-01-29T06:51:11.263Z,97885.88
2023-01-29T06:53:38.537Z,97938.78
2023-01-29T06:56:05.440Z,97857.91
2023-01-29T06:58:31.994Z,97902.66
2023-01-29T07:01:08.893Z,97893.25
2023-01-29T07:03:35.631Z,97867.72
2023-01-29T07:06:02.192Z,97919.34
2023-01-29T07:08:28.693Z,97902.66
2023-01-29T07:11:01.647Z,97902.22
2023-01-29T07:13:28.303Z,97902.91
2023-01-29T07:15:57.689Z,97927.53
2023-01-29T07:18:24.282Z,97922.63
2023-01-29T07:20:50.887Z,97930.16
2023-01-29T07:23:17.634Z,97935.94
2023-01-29T07:25:44.173Z,97922.72
2023-01-29T07:28:10.784Z,97925.97
2023-01-29T07:30:37.280Z,97936.19
2023-01-29T07:33:07.747Z,97941.47
2023-01-29T07:35:41.392Z,97895.66
2023-01-29T07:38:09.267Z,97927.47
2023-01-29T07:40:35.786Z,97952.91
2023-01-29T07:43:04.337Z,97934.63
2023-01-29T07:45:33.690Z,97952.53
2023-01-29T07:48:00.260Z,97923.81
2023-01-29T07:50:26.940Z,97933.44
2023-01-29T07:52:56.695Z,97943.56
2023-01-29T07:55:23.534Z,97958.63
2023-01-29T07:58:00.412Z,97929.91
2023-01-29T08:00:27.542Z,97970.66
2023-01-29T08:02:54.295Z,97952.00
2023-01-29T08:05:20.892Z,97957.06
2023-01-29T08:08:05.716Z,97953.00
2023-01-29T08:10:33.123Z,97960.56
2023-01-29T08:13:00.884Z,97953.63
2023-01-29T08:15:27.636Z,97860.59
2023-01-29T08:17:58.133Z,97952.44
2023-01-29T08:20:25.043Z,97973.22
2023-01-29T08:22:59.054Z,97988.94
2023-01-29T08:25:25.865Z,97956.16
2023-01-29T08:27:52.569Z,97977.88
2023-01-29T08:30:19.138Z,97966.47
2023-01-29T08:32:45.716Z,97997.84
2023-01-29T08:35:12.302Z,97973.78
2023-01-29T08:37:38.878Z,97990.53
2023-01-29T08:40:05.938Z,97996.97
2023-01-29T08:42:32.478Z,98010.69
2023-01-29T08:44:59.083Z,97990.38
2023-01-29T08:47:26.230Z,98045.75
2023-01-29T08:49:53.569Z,98046.06
2023-01-29T08:52:20.087Z,98007.72
2023-01-29T08:54:46.703Z,98005.00
2023-01-29T08:57:13.266Z,98015.06
2023-01-29T08:59:39.855Z,98014.19
2023-01-29T09:02:06.610Z,97995.25
2023-01-29T09:04:33.178Z,98029.25
2023-01-29T09:07:01.144Z,98025.81
2023-01-29T09:09:27.748Z,98033.22
2023-01-29T09:11:54.329Z,98005.50
2023-01-29T09:14:20.846Z,98019.34
2023-01-29T09:16:47.493Z,98052.59
2023-01-29T09:19:14.035Z,98033.63
2023-01-29T09:21:40.575Z,98027.66
2023-01-29T09:24:07.267Z,98025.41
2023-01-29T09:26:33.852Z,98020.94
2023-01-29T09:29:00.401Z,98031.44
2023-01-29T09:31:26.996Z,98016.34
2023-01-29T09:33:53.883Z,98052.91
2023-01-29T09:36:20.670Z,98018.88
2023-01-29T09:38:47.247Z,98021.31
2023-01-29T09:41:38.655Z,98026.50
2023-01-29T09:44:13.232Z,98016.19
2023-01-29T09:46:43.856Z,98014.03
2023-01-29T09:49:22.682Z,98002.66
2023-01-29T09:51:51.258Z,98012.00
2023-01-29T09:54:33.091Z,98025.06
2023-01-29T09:56:59.631Z,98021.78
2023-01-29T09:59:27.636Z,98043.81
2023-01-29T10:01:55.816Z,98016.53
2023-01-29T10:04:41.419Z,98013.44
2023-01-29T10:07:22.848Z,98016.16
2023-01-29T10:10:18.940Z,98002.94
2023-01-29T10:12:45.326Z,98004.00
2023-01-29T10:15:30.780Z,98007.59
2023-01-29T10:18:06.365Z,97989.66
2023-01-29T10:20:51.681Z,97985.28
2023-01-29T10:23:21.101Z,98001.03
2023-01-29T10:25:47.623Z,98005.69
2023-01-29T10:28:18.437Z,97981.41
2023-01-29T10:30:50.353Z,97960.97
2023-01-29T10:33:49.389Z,97964.91
2023-01-29T10:36:47.740Z,97970.28
2023-01-29T10:39:24.491Z,97977.69
2023-01-29T10:42:12.963Z,97971.94
2023-01-29T10:44:43.348Z,97983.47
2023-01-29T10:47:40.941Z,97968.47
2023-01-29T10:50:41.590Z,97945.00
2023-01-29T10:53:32.732Z,97936.47
2023-01-29T10:56:20.899Z,97931.78
2023-01-29T10:58:53.185Z,97940.13
2023-01-29T11:01:19.823Z,97960.38
2023-01-29T11:03:46.519Z,97974.44
2023-01-29T11:06:26.606Z,97921.19
2023-01-29T11:08:54.414Z,97949.34
2023-01-29T11:11:22.285Z,97947.91
2023-01-29T11:13:57.372Z,97911.19
2023-01-29T11:16:24.049Z,97916.47
2023-01-29T11:18:55.603Z,97924.66
2023-01-29T11:21:22.349Z,97895.03
2023-01-29T11:23:49.121Z,97903.00
2023-01-29T11:26:18.754Z,97897.09
2023-01-29T11:28:46.670Z,97900.34
2023-01-29T11:31:27.009Z,97887.94
2023-01-29T11:34:01.210Z,97895.66
2023-01-29T11:36:35.507Z,97905.06
2023-01-29T11:39:13.559Z,97899.75
2023-01-29T11:41:44.796Z,97912.00
2023-01-29T11:44:19.083Z,97900.94
2023-01-29T11:46:45.708Z,97898.91
2023-01-29T11:49:33.039Z,97909.53
2023-01-29T11:52:01.213Z,97918.31
2023-01-29T11:54:30.118Z,97924.44
2023-01-29T11:56:56.776Z,97900.56
2023-01-29T11:59:36.730Z,97887.09
2023-01-29T12:02:23.591Z,97901.38
2023-01-29T12:04:50.185Z,97878.34
2023-01-29T12:07:17.560Z,97899.94
2023-01-29T12:09:55.134Z,97879.53
2023-01-29T12:12:36.958Z,97877.91
2023-01-29T12:15:23.679Z,97883.81
2023-01-29T12:18:04.190Z,97848.34
2023-01-29T12:20:35.289Z,97856.09
2023-01-29T12:23:25.291Z,97852.41
2023-01-29T12:26:05.231Z,97847.31
2023-01-29T12:28:55.464Z,97831.41
2023-01-29T12:31:42.371Z,97843.44
2023-01-29T12:34:47.326Z,97835.69
2023-01-29T12:37:19.333Z,97839.56
2023-01-29T12:39:45.882Z,97810.03
2023-01-29T12:42:22.944Z,97807.78
2023-01-29T12:44:59.751Z,97779.63
2023-01-29T12:47:39.031Z,97809.84
2023-01-29T12:50:07.840Z,97821.44
2023-01-29T12:52:38.421Z,97787.81
2023-01-29T12:55:13.858Z,97842.03
2023-01-29T12:57:42.501Z,97812.28
2023-01-29T13:00:15.065Z,97793.69
2023-01-29T13:03:15.584Z,97778.03
2023-01-29T13:05:47.399Z,97796.34
2023-01-29T13:08:23.355Z,97797.38
2023-01-29T13:10:51.160Z,97815.53
2023-01-29T13:13:33.235Z,97805.94
2023-01-29T13:15:59.777Z,97816.13
2023-01-29T13:18:55.656Z,97757.00
2023-01-29T13:21:24.359Z,97786.78
2023-01-29T13:24:00.213Z,97780.66
2023-01-29T13:26:27.054Z,97778.63
2023-01-29T13:28:53.579Z,97794.34
2023-01-29T13:31:29.791Z,97786.78
2023-01-29T13:34:15.737Z,97765.34
2023-01-29T13:36:45.738Z,97773.31
2023-01-29T13:39:35.576Z,97754.56
2023-01-29T13:42:03.671Z,97767.19
2023-01-29T13:44:34.597Z,97773.31
2023-01-29T13:47:03.308Z,97767.59
2023-01-29T13:49:38.892Z,97786.16
2023-01-29T13:52:21.506Z,97777.63
2023-01-29T13:54:57.327Z,97794.75
2023-01-29T13:57:45.629Z,97796.75
2023-01-29T14:00:21.258Z,97786.56
2023-01-29T14:02:47.810Z,97775.53
2023-01-29T14:05:29.335Z,97779.41
2023-01-29T14:08:02.206Z,97800.03
2023-01-29T14:10:30.010Z,97789.63
2023-01-29T14:13:18.405Z,97785.53
2023-01-29T14:15:45.738Z,97792.91
2023-01-29T14:18:12.173Z,97795.72
2023-01-29T14:20:50.650Z,97778.22
2023-01-29T14:23:47.640Z,97766.78
2023-01-29T14:26:24.626Z,97746.00
2023-01-29T14:28:59.284Z,97755.38
2023-01-29T14:31:47.358Z,97758.66
2023-01-29T14:34:35.931Z,97763.97
2023-01-29T14:37:23.735Z,97785.56
2023-01-29T14:40:14.342Z,97744.78
2023-01-29T14:42:45.183Z,97751.13
2023-01-29T14:45:29.815Z,97750.31
2023-01-29T14:47:57.025Z,97732.56
2023-01-29T14:50:29.601Z,97746.22
2023-01-29T14:53:17.768Z,97764.97
2023-01-29T14:55:47.793Z,97762.75
2023-01-29T14:58:19.943Z,97738.88
2023-01-29T15:00:46.571Z,97758.66
2023-01-29T15:03:22.367Z,97737.66
2023-01-29T15:05:48.940Z,97759.47
2023-01-29T15:08:23.600Z,97737.88
2023-01-29T15:10:54.445Z,97733.59
2023-01-29T15:13:35.503Z,97743.38
2023-01-29T15:16:09.669Z,97732.56
2023-01-29T15:18:40.729Z,97753.97
2023-01-29T15:21:16.953Z,97722.97
2023-01-29T15:23:43.981Z,97744.41
2023-01-29T15:26:21.204Z,97752.75
2023-01-29T15:32:28.591Z,97735.41
2023-01-29T15:34:55.768Z,97743.38
2023-01-29T15:37:33.361Z,97721.78
2023-01-29T15:40:00.192Z,97755.16
2023-01-29T15:42:30.366Z,97729.31
2023-01-29T15:44:56.918Z,97736.44
2023-01-29T15:47:26.018Z,97738.88
2023-01-29T15:49:52.673Z,97752.09
2023-01-29T15:52:29.823Z,97736.66
2023-01-29T15:54:56.810Z,97749.28
2023-01-29T15:57:29.456Z,97725.41
2023-01-29T15:59:56.844Z,97745.81
2023-01-29T16:02:26.404Z,97753.72
2023-01-29T16:04:53.024Z,97721.53
2023-01-29T16:07:19.558Z,97751.47
2023-01-29T16:09:46.083Z,97746.00
2023-01-29T16:12:12.632Z,97751.28
2023-01-29T16:14:39.209Z,97768.59
2023-01-29T16:17:30.784Z,97746.00
2023-01-29T16:20:01.881Z,97729.28
2023-01-29T16:22:33.751Z,97747.19
2023-01-29T16:25:08.480Z,97755.94
2023-01-29T16:27:34.987Z,97764.69
2023-01-29T16:30:01.615Z,97737.38
2023-01-29T16:32:29.586Z,97744.94
2023-01-29T16:34:57.653Z,97717.66
2023-01-29T16:37:24.184Z,97738.41
2023-01-29T16:39:51.032Z,97691.00
2023-01-29T16:42:17.542Z,97724.78
2023-01-29T16:45:02.462Z,97738.44
2023-01-29T16:47:39.014Z,97764.91
2023-01-29T16:50:11.812Z,97748.59
2023-01-29T16:52:38.393Z,97743.91
2023-01-29T16:55:20.434Z,97740.44
2023-01-29T16:57:52.646Z,97727.63
2023-01-29T17:00:24.648Z,97712.16
2023-01-29T17:02:53.080Z,97718.63
2023-01-29T17:05:26.406Z,97745.75
2023-01-29T17:07:52.922Z,97733.72
2023-01-29T17:10:19.891Z,97743.88
2023-01-29T17:12:53.274Z,97744.06
2023-01-29T17:15:31.313Z,97751.63
2023-01-29T17:17:57.898Z,97750.63
2023-01-29T17:20:24.755Z,97758.53
2023-01-29T17:22:51.384Z,97757.72
2023-01-29T17:25:18.484Z,97748.38
2023-01-29T17:27:45.223Z,97732.69
2023-01-29T17:30:15.942Z,97750.19
2023-01-29T17:32:44.828Z,97762.41
2023-01-29T17:35:14.943Z,97745.09
2023-01-29T17:37:42.040Z,97736.94
2023-01-29T17:40:17.462Z,97759.53
2023-01-29T17:42:44.535Z,97755.69
2023-01-29T17:45:11.164Z,97753.00
2023-01-29T17:47:37.881Z,97766.09
2023-01-29T17:50:30.369Z,97742.25
2023-01-29T17:52:56.951Z,97749.53
2023-01-29T17:55:23.541Z,97754.88
2023-01-29T17:57:50.108Z,97765.88
2023-01-29T18:00:17.754Z,97758.53
2023-01-29T18:02:44.299Z,97769.94
2023-01-29T18:05:11.641Z,97741.63
2023-01-29T18:07:38.671Z,97741.22
2023-01-29T18:10:05.687Z,97750.59
2023-01-29T18:12:32.244Z,97757.50
2023-01-29T18:14:58.784Z,97745.88
2023-01-29T18:17:25.525Z,97750.75
2023-01-29T18:19:52.030Z,97752.38
2023-01-29T18:22:18.513Z,97747.31
2023-01-29T18:24:45.081Z,97753.81
2023-01-29T18:27:11.775Z,97753.25
2023-01-29T18:29:38.348Z,97741.97
2023-01-29T18:32:05.160Z,97758.69
2023-01-29T18:34:31.764Z,97757.50
2023-01-29T18:36:58.253Z,97733.69
2023-01-29T18:39:24.822Z,97745.28
2023-01-29T18:41:51.710Z,97756.88
2023-01-29T18:44:22.985Z,97721.88
2023-01-29T18:46:49.685Z,97747.13
2023-01-29T18:49:16.303Z,97718.81
2023-01-29T18:51:46.010Z,97734.88
2023-01-29T18:54:15.358Z,97736.50
2023-01-29T18:57:04.008Z,97721.63
2023-01-29T18:59:28.390Z,97732.44
2023-01-29T19:01:58.172Z,97730.19
2023-01-29T19:04:24.795Z,97696.03
2023-01-29T19:06:51.384Z,97723.91
2023-01-29T19:09:25.721Z,97748.34
2023-01-29T19:11:52.350Z,97702.31
2023-01-29T19:14:18.953Z,97728.00
2023-01-29T19:16:47.870Z,97743.25
2023-01-29T19:19:14.691Z,97728.78
2023-01-29T19:21:43.851Z,97731.00
2023-01-29T19:24:12.592Z,97727.38
2023-01-29T19:26:40.485Z,97709.25
2023-01-29T19:29:09.300Z,97732.84
2023-01-29T19:31:41.955Z,97719.00
2023-01-29T19:34:11.802Z,97689.91
2023-01-29T19:36:38.429Z,97723.28
2023-01-29T19:39:08.060Z,97747.28
2023-01-29T19:41:34.762Z,97729.19
2023-01-29T19:44:01.382Z,97720.41
2023-01-29T19:46:27.979Z,97734.69
2023-01-29T19:48:54.589Z,97722.47
2023-01-29T19:51:23.659Z,97723.50
2023-01-29T19:53:51.298Z,97734.06
2023-01-29T19:56:21.306Z,97722.66
2023-01-29T19:58:55.505Z,97718.81
2023-01-29T20:01:24.919Z,97728.78
2023-01-29T20:03:51.717Z,97732.25
2023-01-29T20:06:19.615Z,97730.22
2023-01-29T20:08:48.357Z,97723.91
2023-01-29T20:11:15.812Z,97740.81
2023-01-29T20:13:42.929Z,97740.19
2023-01-29T20:16:16.185Z,97746.72
2023-01-29T20:18:46.239Z,97721.44
2023-01-29T20:21:19.659Z,97737.75
2023-01-29T20:23:49.713Z,97718.38
2023-01-29T20:26:16.866Z,97732.88
2023-01-29T20:28:58.679Z,97721.44
2023-01-29T20:31:36.957Z,97699.66
2023-01-29T20:34:22.901Z,97723.69
2023-01-29T20:36:55.456Z,97708.00
2023-01-29T20:39:22.264Z,97715.94
2023-01-29T20:41:52.598Z,97694.16
2023-01-29T20:44:19.231Z,97701.28
2023-01-29T20:46:49.061Z,97709.03
2023-01-29T20:49:24.722Z,97707.81
2023-01-29T20:51:54.363Z,97726.13
2023-01-29T20:54:26.544Z,97720.66
2023-01-29T20:56:56.255Z,97721.09
2023-01-29T20:59:28.794Z,97703.56
2023-01-29T21:01:58.106Z,97699.69
2023-01-29T21:04:51.475Z,97696.22
2023-01-29T21:07:18.130Z,97688.09
2023-01-29T21:09:52.351Z,97673.03
2023-01-29T21:12:25.231Z,97704.38
2023-01-29T21:14:52.058Z,97687.88
2023-01-29T21:17:28.053Z,97696.25
2023-01-29T21:19:59.148Z,97674.88
2023-01-29T21:22:26.293Z,97668.75
2023-01-29T21:24:54.530Z,97667.09
2023-01-29T21:27:21.260Z,97663.66
2023-01-29T21:29:48.007Z,97673.03
2023-01-29T21:32:14.744Z,97645.13
2023-01-29T21:34:41.863Z,97671.41
2023-01-29T21:37:08.689Z,97646.75
2023-01-29T21:39:41.644Z,97630.28
2023-01-29T21:42:08.542Z,97656.09
2023-01-29T21:44:37.530Z,97630.84
2023-01-29T21:47:07.182Z,97652.44
2023-01-29T21:49:34.088Z,97639.22
2023-01-29T21:52:01.748Z,97630.66
2023-01-29T21:54:31.398Z,97629.84
2023-01-29T21:56:58.050Z,97621.69
2023-01-29T21:59:24.666Z,97636.56
2023-01-29T22:01:51.596Z,97663.22
2023-01-29T22:04:18.279Z,97639.84
2023-01-29T22:06:44.931Z,97645.75
2023-01-29T22:09:11.623Z,97640.66
2023-01-29T22:11:38.382Z,97668.75
2023-01-29T22:14:04.977Z,97662.03
2023-01-29T22:16:31.592Z,97636.41
2023-01-29T22:18:58.342Z,97641.88
2023-01-29T22:21:25.020Z,97652.69
2023-01-29T22:23:51.737Z,97655.31
2023-01-29T22:26:18.578Z,97644.34
2023-01-29T22:28:45.270Z,97643.72
2023-01-29T22:31:11.986Z,97639.84
2023-01-29T22:33:38.648Z,97627.84
2023-01-29T22:36:05.581Z,97627.63
2023-01-29T22:38:32.311Z,97641.06
2023-01-29T22:40:59.815Z,97654.28
2023-01-29T22:43:26.893Z,97637.81
2023-01-29T22:45:53.668Z,97625.81
2023-01-29T22:48:20.400Z,97624.59
2023-01-29T22:50:47.148Z,97639.84
2023-01-29T22:53:13.847Z,97630.47
2023-01-29T22:55:40.526Z,97626.44
2023-01-29T22:58:07.292Z,97639.66
2023-01-29T23:00:33.883Z,97616.25
2023-01-29T23:03:00.525Z,97596.28
2023-01-29T23:05:27.199Z,97606.47
2023-01-29T23:07:53.767Z,97615.00
2023-01-29T23:10:20.354Z,97598.91
2023-01-29T23:12:47.003Z,97611.13
2023-01-29T23:15:13.530Z,97584.06
2023-01-29T23:17:40.077Z,97569.41
2023-01-29T23:20:07.271Z,97573.91
2023-01-29T23:22:33.870Z,97559.88
2023-01-29T23:25:00.533Z,97583.28
2023-01-29T23:27:27.106Z,97575.34
2023-01-29T23:29:53.859Z,97560.25
2023-01-29T23:32:20.543Z,97566.38
2023-01-29T23:34:47.326Z,97565.56
2023-01-29T23:37:14.006Z,97561.69
2023-01-29T23:39:40.665Z,97539.50
2023-01-29T23:42:07.353Z,97536.66
2023-01-29T23:44:33.955Z,97543.34
2023-01-29T23:47:00.621Z,97560.44
2023-01-29T23:49:27.393Z,97523.03
2023-01-29T23:51:53.975Z,97525.69
2023-01-29T23:54:20.736Z,97528.91
2023-01-29T23:56:47.386Z,97521.41
2023-01-29T23:59:14.101Z,97512.84
